This is the latest recevied weather packets stored in our database for station/object SP1BMW-13. If no packets are shown the sender has not sent any weather packets the latest 10 day(s).
| Time | Temp. | Humidity | Pressure | Rain* | Wind** | Luminosity | Snow |
|---|---|---|---|---|---|---|---|
| 1788076417 | 23.33° C | 62% | 1008.1 hPa | 0 mm | 0.45 m/s, 23° | 392 W/m² | - |
| 1788076357 | 23.33° C | 59% | 1008.2 hPa | 0 mm | 0.45 m/s, 285° | 352 W/m² | - |
| 1788076297 | 23.33° C | 59% | 1008.1 hPa | 0 mm | 0.45 m/s, 284° | 343 W/m² | - |
| 1788076242 | 23.33° C | 59% | 1008.3 hPa | 0 mm | 0.89 m/s, 220° | 338 W/m² | - |
| 1788076179 | 23.33° C | 59% | 1008.1 hPa | 0 mm | 1.79 m/s, 162° | 334 W/m² | - |
| 1788076117 | 23.33° C | 60% | 1008.1 hPa | 0 mm | 0.89 m/s, 299° | 331 W/m² | - |
| 1788076057 | 23.33° C | 59% | 1008.3 hPa | 0 mm | 1.34 m/s, 128° | 327 W/m² | - |
| 1788076000 | 23.33° C | 59% | 1008.2 hPa | 0 mm | 0 m/s | 326 W/m² | - |
| 1788075937 | 23.33° C | 59% | 1008.1 hPa | 0 mm | 0.45 m/s, 44° | 323 W/m² | - |
| 1788075876 | 23.33° C | 60% | 1008.2 hPa | 0 mm | 0 m/s | 321 W/m² | - |
| 1788075819 | 23.33° C | 61% | 1008.1 hPa | 0 mm | 0.45 m/s, 84° | 319 W/m² | - |
| 1788075757 | 23.33° C | 60% | 1008.2 hPa | 0 mm | 0.89 m/s, 125° | 316 W/m² | - |
| 1788075697 | 23.33° C | 60% | 1008.1 hPa | 0 mm | 0 m/s | 312 W/m² | - |
| 1788075636 | 23.33° C | 60% | 1008.3 hPa | 0 mm | 0.89 m/s, 55° | 310 W/m² | - |
| 1788075577 | 23.33° C | 61% | 1008.1 hPa | 0 mm | 0.89 m/s, 340° | 308 W/m² | - |
| 1788075516 | 23.33° C | 61% | 1008.1 hPa | 0 mm | 1.34 m/s, 79° | 306 W/m² | - |
| 1788075459 | 22.78° C | 62% | 1008.3 hPa | 0 mm | 0.89 m/s, 334° | 304 W/m² | - |
| 1788075399 | 22.78° C | 61% | 1008.2 hPa | 0 mm | 0.89 m/s, 25° | 299 W/m² | - |
| 1788075339 | 22.78° C | 62% | 1008.1 hPa | 0 mm | 0 m/s | 297 W/m² | - |
| 1788075276 | 22.78° C | 62% | 1008.3 hPa | 0 mm | 0.45 m/s, 276° | 297 W/m² | - |
| 1788075219 | 22.78° C | 64% | 1008.1 hPa | 0 mm | 0.45 m/s, 247° | 295 W/m² | - |
| 1788075157 | 22.78° C | 62% | 1008.2 hPa | 0 mm | 0.45 m/s, 59° | 294 W/m² | - |
| 1788075099 | 22.22° C | 61% | 1008.1 hPa | 0 mm | 0.45 m/s, 339° | 292 W/m² | - |
| 1788075036 | 22.22° C | 61% | 1008.3 hPa | 0 mm | 0 m/s | 293 W/m² | - |
| 1788074976 | 22.22° C | 62% | 1008.2 hPa | 0 mm | 0.89 m/s, 106° | 295 W/m² | - |
* Rain latest hour (hover to see other rain measurements)
** Current wind speed in m/s (hover to see current wind gust speed)